sensor_id;sensor_type;location;lat;lon;timestamp;P1;durP1;ratioP1;P2;durP2;ratioP2
15706;SDS011;7953;54.302;10.128;2022-07-19T00:02:04;6.50;;;5.17;;
15706;SDS011;7953;54.302;10.128;2022-07-19T00:04:33;6.63;;;5.93;;
15706;SDS011;7953;54.302;10.128;2022-07-19T00:07:01;8.13;;;5.53;;
15706;SDS011;7953;54.302;10.128;2022-07-19T00:09:28;7.47;;;5.87;;
15706;SDS011;7953;54.302;10.128;2022-07-19T00:11:56;6.17;;;5.37;;
15706;SDS011;7953;54.302;10.128;2022-07-19T00:14:23;6.87;;;5.50;;
15706;SDS011;7953;54.302;10.128;2022-07-19T00:16:50;6.60;;;5.80;;
15706;SDS011;7953;54.302;10.128;2022-07-19T00:19:17;6.33;;;5.73;;
15706;SDS011;7953;54.302;10.128;2022-07-19T00:21:46;7.10;;;5.90;;
15706;SDS011;7953;54.302;10.128;2022-07-19T00:24:13;6.50;;;5.33;;
15706;SDS011;7953;54.302;10.128;2022-07-19T00:26:40;6.13;;;5.43;;
15706;SDS011;7953;54.302;10.128;2022-07-19T00:29:07;7.30;;;5.33;;
15706;SDS011;7953;54.302;10.128;2022-07-19T00:31:34;7.07;;;6.37;;
15706;SDS011;7953;54.302;10.128;2022-07-19T00:34:01;7.73;;;5.40;;
15706;SDS011;7953;54.302;10.128;2022-07-19T00:36:28;6.17;;;5.10;;
15706;SDS011;7953;54.302;10.128;2022-07-19T00:38:56;7.83;;;5.23;;
15706;SDS011;7953;54.302;10.128;2022-07-19T00:41:23;6.13;;;5.20;;
15706;SDS011;7953;54.302;10.128;2022-07-19T00:43:50;6.57;;;5.83;;
15706;SDS011;7953;54.302;10.128;2022-07-19T00:46:18;6.40;;;5.43;;
15706;SDS011;7953;54.302;10.128;2022-07-19T00:48:46;10.07;;;5.40;;
15706;SDS011;7953;54.302;10.128;2022-07-19T00:51:14;5.70;;;5.10;;
15706;SDS011;7953;54.302;10.128;2022-07-19T00:53:42;5.90;;;5.20;;
15706;SDS011;7953;54.302;10.128;2022-07-19T00:56:12;7.00;;;5.13;;
15706;SDS011;7953;54.302;10.128;2022-07-19T00:58:40;7.10;;;5.20;;
15706;SDS011;7953;54.302;10.128;2022-07-19T01:01:08;6.67;;;5.80;;
15706;SDS011;7953;54.302;10.128;2022-07-19T01:03:36;6.77;;;5.70;;
15706;SDS011;7953;54.302;10.128;2022-07-19T01:06:04;6.33;;;5.13;;
15706;SDS011;7953;54.302;10.128;2022-07-19T01:08:32;8.67;;;5.47;;
15706;SDS011;7953;54.302;10.128;2022-07-19T01:10:59;5.97;;;5.03;;
15706;SDS011;7953;54.302;10.128;2022-07-19T01:13:27;7.80;;;5.60;;
15706;SDS011;7953;54.302;10.128;2022-07-19T01:15:54;7.27;;;5.83;;
15706;SDS011;7953;54.302;10.128;2022-07-19T01:18:21;8.10;;;6.03;;
15706;SDS011;7953;54.302;10.128;2022-07-19T01:20:48;8.43;;;6.10;;
15706;SDS011;7953;54.302;10.128;2022-07-19T01:23:17;8.87;;;5.90;;
15706;SDS011;7953;54.302;10.128;2022-07-19T01:25:44;6.90;;;5.53;;
15706;SDS011;7953;54.302;10.128;2022-07-19T01:28:11;7.10;;;5.83;;
15706;SDS011;7953;54.302;10.128;2022-07-19T01:30:38;7.90;;;6.33;;
15706;SDS011;7953;54.302;10.128;2022-07-19T01:33:05;7.53;;;5.83;;
15706;SDS011;7953;54.302;10.128;2022-07-19T01:35:32;7.80;;;5.63;;
15706;SDS011;7953;54.302;10.128;2022-07-19T01:37:58;11.43;;;6.37;;
15706;SDS011;7953;54.302;10.128;2022-07-19T01:40:27;7.30;;;6.53;;
15706;SDS011;7953;54.302;10.128;2022-07-19T01:42:54;8.30;;;6.00;;
15706;SDS011;7953;54.302;10.128;2022-07-19T01:45:21;8.53;;;6.50;;
15706;SDS011;7953;54.302;10.128;2022-07-19T01:47:48;6.77;;;5.73;;
15706;SDS011;7953;54.302;10.128;2022-07-19T01:50:15;9.17;;;6.43;;
15706;SDS011;7953;54.302;10.128;2022-07-19T01:52:43;10.87;;;6.33;;
15706;SDS011;7953;54.302;10.128;2022-07-19T01:55:11;7.50;;;5.93;;
15706;SDS011;7953;54.302;10.128;2022-07-19T01:57:42;8.30;;;6.70;;
15706;SDS011;7953;54.302;10.128;2022-07-19T02:00:10;6.93;;;6.20;;
15706;SDS011;7953;54.302;10.128;2022-07-19T02:02:37;8.13;;;5.97;;
15706;SDS011;7953;54.302;10.128;2022-07-19T02:05:04;6.80;;;5.17;;
15706;SDS011;7953;54.302;10.128;2022-07-19T02:07:32;8.33;;;5.67;;
15706;SDS011;7953;54.302;10.128;2022-07-19T02:09:59;8.17;;;5.47;;
15706;SDS011;7953;54.302;10.128;2022-07-19T02:12:26;7.20;;;6.17;;
15706;SDS011;7953;54.302;10.128;2022-07-19T02:14:54;7.30;;;5.80;;
15706;SDS011;7953;54.302;10.128;2022-07-19T02:17:21;7.70;;;5.97;;
15706;SDS011;7953;54.302;10.128;2022-07-19T02:19:48;7.30;;;5.40;;
15706;SDS011;7953;54.302;10.128;2022-07-19T02:22:15;8.43;;;5.53;;
15706;SDS011;7953;54.302;10.128;2022-07-19T02:24:42;6.87;;;5.77;;
15706;SDS011;7953;54.302;10.128;2022-07-19T02:27:09;8.00;;;5.47;;
15706;SDS011;7953;54.302;10.128;2022-07-19T02:29:36;7.47;;;6.20;;
15706;SDS011;7953;54.302;10.128;2022-07-19T02:32:05;7.60;;;5.97;;
15706;SDS011;7953;54.302;10.128;2022-07-19T02:34:33;7.80;;;5.70;;
15706;SDS011;7953;54.302;10.128;2022-07-19T02:37:00;7.47;;;5.70;;
15706;SDS011;7953;54.302;10.128;2022-07-19T02:39:28;7.00;;;5.23;;
15706;SDS011;7953;54.302;10.128;2022-07-19T02:41:55;10.83;;;5.90;;
15706;SDS011;7953;54.302;10.128;2022-07-19T02:44:22;7.23;;;5.93;;
15706;SDS011;7953;54.302;10.128;2022-07-19T02:46:49;6.00;;;5.20;;
15706;SDS011;7953;54.302;10.128;2022-07-19T02:49:18;6.17;;;4.90;;
15706;SDS011;7953;54.302;10.128;2022-07-19T02:51:47;10.43;;;5.90;;
15706;SDS011;7953;54.302;10.128;2022-07-19T02:54:14;6.70;;;5.20;;
15706;SDS011;7953;54.302;10.128;2022-07-19T02:56:41;9.10;;;5.77;;
15706;SDS011;7953;54.302;10.128;2022-07-19T02:59:08;7.80;;;5.77;;
15706;SDS011;7953;54.302;10.128;2022-07-19T03:01:35;7.03;;;5.10;;
15706;SDS011;7953;54.302;10.128;2022-07-19T03:04:02;5.43;;;4.87;;
15706;SDS011;7953;54.302;10.128;2022-07-19T03:06:30;5.90;;;4.93;;
15706;SDS011;7953;54.302;10.128;2022-07-19T03:08:57;5.80;;;5.30;;
15706;SDS011;7953;54.302;10.128;2022-07-19T03:11:24;6.63;;;5.40;;
15706;SDS011;7953;54.302;10.128;2022-07-19T03:13:51;9.30;;;5.60;;
15706;SDS011;7953;54.302;10.128;2022-07-19T03:16:18;8.90;;;5.97;;
15706;SDS011;7953;54.302;10.128;2022-07-19T03:18:45;5.97;;;4.53;;
15706;SDS011;7953;54.302;10.128;2022-07-19T03:21:12;7.20;;;4.73;;
15706;SDS011;7953;54.302;10.128;2022-07-19T03:23:40;7.40;;;5.13;;
15706;SDS011;7953;54.302;10.128;2022-07-19T03:26:07;7.33;;;5.30;;
15706;SDS011;7953;54.302;10.128;2022-07-19T03:28:34;7.13;;;5.47;;
15706;SDS011;7953;54.302;10.128;2022-07-19T03:31:01;5.40;;;4.83;;
15706;SDS011;7953;54.302;10.128;2022-07-19T03:33:28;6.90;;;5.83;;
15706;SDS011;7953;54.302;10.128;2022-07-19T03:35:55;6.23;;;5.33;;
15706;SDS011;7953;54.302;10.128;2022-07-19T03:38:22;6.07;;;5.03;;
15706;SDS011;7953;54.302;10.128;2022-07-19T03:40:51;7.27;;;5.47;;
15706;SDS011;7953;54.302;10.128;2022-07-19T03:43:18;6.40;;;5.10;;
15706;SDS011;7953;54.302;10.128;2022-07-19T03:45:45;8.17;;;5.20;;
15706;SDS011;7953;54.302;10.128;2022-07-19T03:48:12;5.93;;;5.20;;
15706;SDS011;7953;54.302;10.128;2022-07-19T03:50:40;6.17;;;5.57;;
15706;SDS011;7953;54.302;10.128;2022-07-19T03:53:07;6.50;;;5.03;;
15706;SDS011;7953;54.302;10.128;2022-07-19T03:55:34;7.77;;;5.17;;
15706;SDS011;7953;54.302;10.128;2022-07-19T03:58:02;5.63;;;4.97;;
15706;SDS011;7953;54.302;10.128;2022-07-19T04:00:30;8.57;;;5.40;;
15706;SDS011;7953;54.302;10.128;2022-07-19T04:02:57;8.57;;;5.37;;
15706;SDS011;7953;54.302;10.128;2022-07-19T04:05:24;6.73;;;5.07;;
15706;SDS011;7953;54.302;10.128;2022-07-19T04:07:51;5.60;;;5.10;;
15706;SDS011;7953;54.302;10.128;2022-07-19T04:10:18;8.07;;;5.80;;
15706;SDS011;7953;54.302;10.128;2022-07-19T04:12:45;7.70;;;5.90;;
15706;SDS011;7953;54.302;10.128;2022-07-19T04:15:13;7.10;;;5.50;;
15706;SDS011;7953;54.302;10.128;2022-07-19T04:17:40;5.87;;;5.13;;
15706;SDS011;7953;54.302;10.128;2022-07-19T04:20:07;10.97;;;5.60;;
15706;SDS011;7953;54.302;10.128;2022-07-19T04:22:35;6.73;;;5.97;;
15706;SDS011;7953;54.302;10.128;2022-07-19T04:25:02;6.17;;;5.03;;
15706;SDS011;7953;54.302;10.128;2022-07-19T04:27:29;5.70;;;4.93;;
15706;SDS011;7953;54.302;10.128;2022-07-19T04:29:56;6.60;;;5.77;;
15706;SDS011;7953;54.302;10.128;2022-07-19T04:32:25;6.83;;;6.00;;
15706;SDS011;7953;54.302;10.128;2022-07-19T04:34:52;7.03;;;6.17;;
15706;SDS011;7953;54.302;10.128;2022-07-19T04:37:19;7.17;;;6.47;;
15706;SDS011;7953;54.302;10.128;2022-07-19T04:39:46;7.50;;;6.13;;
15706;SDS011;7953;54.302;10.128;2022-07-19T04:42:13;7.70;;;6.57;;
15706;SDS011;7953;54.302;10.128;2022-07-19T04:44:40;10.43;;;7.17;;
15706;SDS011;7953;54.302;10.128;2022-07-19T04:47:07;10.50;;;7.40;;
15706;SDS011;7953;54.302;10.128;2022-07-19T04:49:35;8.43;;;7.03;;
15706;SDS011;7953;54.302;10.128;2022-07-19T04:52:02;9.60;;;7.47;;
15706;SDS011;7953;54.302;10.128;2022-07-19T04:54:30;8.13;;;6.80;;
15706;SDS011;7953;54.302;10.128;2022-07-19T04:56:57;9.10;;;6.67;;
15706;SDS011;7953;54.302;10.128;2022-07-19T04:59:24;9.23;;;7.47;;
15706;SDS011;7953;54.302;10.128;2022-07-19T05:01:51;9.40;;;7.07;;
15706;SDS011;7953;54.302;10.128;2022-07-19T05:04:18;9.63;;;7.17;;
15706;SDS011;7953;54.302;10.128;2022-07-19T05:06:46;10.00;;;7.07;;
15706;SDS011;7953;54.302;10.128;2022-07-19T05:09:16;8.57;;;7.00;;
15706;SDS011;7953;54.302;10.128;2022-07-19T05:11:44;8.50;;;6.97;;
15706;SDS011;7953;54.302;10.128;2022-07-19T05:14:11;8.53;;;6.53;;
15706;SDS011;7953;54.302;10.128;2022-07-19T05:16:38;10.47;;;7.20;;
15706;SDS011;7953;54.302;10.128;2022-07-19T05:19:05;8.20;;;6.40;;
15706;SDS011;7953;54.302;10.128;2022-07-19T05:21:32;8.47;;;6.83;;
15706;SDS011;7953;54.302;10.128;2022-07-19T05:24:00;9.73;;;6.80;;
15706;SDS011;7953;54.302;10.128;2022-07-19T05:26:28;8.40;;;6.33;;
15706;SDS011;7953;54.302;10.128;2022-07-19T05:28:56;8.90;;;5.83;;
15706;SDS011;7953;54.302;10.128;2022-07-19T05:31:23;12.67;;;6.17;;
15706;SDS011;7953;54.302;10.128;2022-07-19T05:33:50;6.60;;;5.73;;
15706;SDS011;7953;54.302;10.128;2022-07-19T05:36:17;5.90;;;5.17;;
15706;SDS011;7953;54.302;10.128;2022-07-19T05:38:44;7.90;;;5.83;;
15706;SDS011;7953;54.302;10.128;2022-07-19T05:41:12;6.33;;;5.67;;
15706;SDS011;7953;54.302;10.128;2022-07-19T05:43:41;6.33;;;5.53;;
15706;SDS011;7953;54.302;10.128;2022-07-19T05:46:09;8.63;;;6.10;;
15706;SDS011;7953;54.302;10.128;2022-07-19T05:48:36;9.20;;;6.37;;
15706;SDS011;7953;54.302;10.128;2022-07-19T05:51:03;8.00;;;5.87;;
15706;SDS011;7953;54.302;10.128;2022-07-19T05:53:30;9.83;;;6.27;;
15706;SDS011;7953;54.302;10.128;2022-07-19T05:55:57;7.13;;;5.83;;
15706;SDS011;7953;54.302;10.128;2022-07-19T05:58:26;8.73;;;6.50;;
15706;SDS011;7953;54.302;10.128;2022-07-19T06:00:53;7.53;;;5.57;;
15706;SDS011;7953;54.302;10.128;2022-07-19T06:03:37;8.97;;;6.07;;
15706;SDS011;7953;54.302;10.128;2022-07-19T06:06:04;8.17;;;5.47;;
15706;SDS011;7953;54.302;10.128;2022-07-19T06:08:31;6.40;;;5.43;;
15706;SDS011;7953;54.302;10.128;2022-07-19T06:10:58;10.80;;;5.67;;
15706;SDS011;7953;54.302;10.128;2022-07-19T06:13:26;6.90;;;5.37;;
15706;SDS011;7953;54.302;10.128;2022-07-19T06:15:53;8.17;;;5.23;;
15706;SDS011;7953;54.302;10.128;2022-07-19T06:18:20;6.17;;;5.07;;
15706;SDS011;7953;54.302;10.128;2022-07-19T06:20:47;7.57;;;5.10;;
15706;SDS011;7953;54.302;10.128;2022-07-19T06:23:14;8.73;;;5.53;;
15706;SDS011;7953;54.302;10.128;2022-07-19T06:25:41;6.07;;;5.47;;
15706;SDS011;7953;54.302;10.128;2022-07-19T06:28:07;9.13;;;5.80;;
15706;SDS011;7953;54.302;10.128;2022-07-19T06:30:36;7.97;;;6.00;;
15706;SDS011;7953;54.302;10.128;2022-07-19T06:33:03;6.63;;;5.27;;
15706;SDS011;7953;54.302;10.128;2022-07-19T06:35:30;6.67;;;5.07;;
15706;SDS011;7953;54.302;10.128;2022-07-19T06:37:56;6.10;;;5.50;;
15706;SDS011;7953;54.302;10.128;2022-07-19T06:40:23;7.87;;;5.10;;
15706;SDS011;7953;54.302;10.128;2022-07-19T06:42:50;6.13;;;5.10;;
15706;SDS011;7953;54.302;10.128;2022-07-19T06:45:17;6.00;;;4.63;;
15706;SDS011;7953;54.302;10.128;2022-07-19T06:47:45;7.20;;;5.20;;
15706;SDS011;7953;54.302;10.128;2022-07-19T06:50:12;7.33;;;5.33;;
15706;SDS011;7953;54.302;10.128;2022-07-19T06:52:39;5.70;;;4.97;;
15706;SDS011;7953;54.302;10.128;2022-07-19T06:55:06;5.47;;;4.57;;
15706;SDS011;7953;54.302;10.128;2022-07-19T06:57:34;8.17;;;5.67;;
15706;SDS011;7953;54.302;10.128;2022-07-19T07:00:01;8.53;;;5.27;;
15706;SDS011;7953;54.302;10.128;2022-07-19T07:02:28;6.57;;;4.40;;
15706;SDS011;7953;54.302;10.128;2022-07-19T07:04:56;6.33;;;5.07;;
15706;SDS011;7953;54.302;10.128;2022-07-19T07:07:23;6.57;;;4.80;;
15706;SDS011;7953;54.302;10.128;2022-07-19T07:09:50;6.13;;;5.03;;
15706;SDS011;7953;54.302;10.128;2022-07-19T07:12:17;6.90;;;4.77;;
15706;SDS011;7953;54.302;10.128;2022-07-19T07:14:44;6.20;;;5.27;;
15706;SDS011;7953;54.302;10.128;2022-07-19T07:17:11;6.43;;;4.90;;
15706;SDS011;7953;54.302;10.128;2022-07-19T07:19:38;7.13;;;5.03;;
15706;SDS011;7953;54.302;10.128;2022-07-19T07:22:06;5.80;;;4.57;;
15706;SDS011;7953;54.302;10.128;2022-07-19T07:24:33;6.13;;;4.47;;
15706;SDS011;7953;54.302;10.128;2022-07-19T07:27:00;5.30;;;4.80;;
15706;SDS011;7953;54.302;10.128;2022-07-19T07:29:27;6.17;;;5.10;;
15706;SDS011;7953;54.302;10.128;2022-07-19T07:31:54;6.03;;;4.77;;
15706;SDS011;7953;54.302;10.128;2022-07-19T07:34:21;5.83;;;4.53;;
15706;SDS011;7953;54.302;10.128;2022-07-19T07:36:47;6.40;;;5.07;;
15706;SDS011;7953;54.302;10.128;2022-07-19T07:39:16;5.43;;;4.37;;
15706;SDS011;7953;54.302;10.128;2022-07-19T07:41:43;8.30;;;4.87;;
15706;SDS011;7953;54.302;10.128;2022-07-19T07:44:10;10.60;;;4.83;;
15706;SDS011;7953;54.302;10.128;2022-07-19T07:46:37;9.10;;;5.50;;
15706;SDS011;7953;54.302;10.128;2022-07-19T07:49:04;9.93;;;5.20;;
15706;SDS011;7953;54.302;10.128;2022-07-19T07:51:31;6.90;;;5.37;;
15706;SDS011;7953;54.302;10.128;2022-07-19T07:53:58;7.07;;;4.53;;
15706;SDS011;7953;54.302;10.128;2022-07-19T07:56:26;5.60;;;4.40;;
15706;SDS011;7953;54.302;10.128;2022-07-19T07:58:53;6.90;;;5.13;;
15706;SDS011;7953;54.302;10.128;2022-07-19T08:01:20;6.40;;;4.60;;
15706;SDS011;7953;54.302;10.128;2022-07-19T08:03:47;6.97;;;4.43;;
15706;SDS011;7953;54.302;10.128;2022-07-19T08:06:14;7.13;;;5.20;;
15706;SDS011;7953;54.302;10.128;2022-07-19T08:08:41;9.67;;;5.10;;
15706;SDS011;7953;54.302;10.128;2022-07-19T08:11:08;5.57;;;4.50;;
15706;SDS011;7953;54.302;10.128;2022-07-19T08:13:37;5.57;;;4.93;;
15706;SDS011;7953;54.302;10.128;2022-07-19T08:16:04;9.85;;;5.40;;
15706;SDS011;7953;54.302;10.128;2022-07-19T08:18:31;5.63;;;4.57;;
15706;SDS011;7953;54.302;10.128;2022-07-19T08:20:59;4.65;;;4.25;;
15706;SDS011;7953;54.302;10.128;2022-07-19T08:23:26;7.38;;;4.63;;
15706;SDS011;7953;54.302;10.128;2022-07-19T08:25:53;5.80;;;4.30;;
15706;SDS011;7953;54.302;10.128;2022-07-19T08:28:20;5.13;;;4.30;;
15706;SDS011;7953;54.302;10.128;2022-07-19T08:30:48;5.47;;;4.50;;
15706;SDS011;7953;54.302;10.128;2022-07-19T08:33:15;5.63;;;4.28;;
15706;SDS011;7953;54.302;10.128;2022-07-19T08:35:42;5.38;;;3.88;;
15706;SDS011;7953;54.302;10.128;2022-07-19T08:38:08;4.80;;;4.30;;
15706;SDS011;7953;54.302;10.128;2022-07-19T08:40:35;7.38;;;4.88;;
15706;SDS011;7953;54.302;10.128;2022-07-19T08:43:07;5.72;;;4.97;;
15706;SDS011;7953;54.302;10.128;2022-07-19T08:45:36;7.82;;;5.05;;
15706;SDS011;7953;54.302;10.128;2022-07-19T08:48:07;5.30;;;4.75;;
15706;SDS011;7953;54.302;10.128;2022-07-19T08:50:34;5.45;;;4.47;;
15706;SDS011;7953;54.302;10.128;2022-07-19T08:53:01;6.03;;;5.22;;
15706;SDS011;7953;54.302;10.128;2022-07-19T08:55:29;5.28;;;4.20;;
15706;SDS011;7953;54.302;10.128;2022-07-19T08:57:56;5.30;;;4.53;;
15706;SDS011;7953;54.302;10.128;2022-07-19T09:00:22;5.43;;;4.93;;
15706;SDS011;7953;54.302;10.128;2022-07-19T09:02:53;7.03;;;4.43;;
15706;SDS011;7953;54.302;10.128;2022-07-19T09:05:22;5.70;;;4.50;;
15706;SDS011;7953;54.302;10.128;2022-07-19T09:08:00;5.57;;;4.53;;
15706;SDS011;7953;54.302;10.128;2022-07-19T09:10:29;6.75;;;4.60;;
15706;SDS011;7953;54.302;10.128;2022-07-19T09:13:01;6.32;;;4.68;;
15706;SDS011;7953;54.302;10.128;2022-07-19T09:15:37;4.80;;;4.30;;
15706;SDS011;7953;54.302;10.128;2022-07-19T09:18:05;6.40;;;4.65;;
15706;SDS011;7953;54.302;10.128;2022-07-19T09:20:35;4.60;;;4.07;;
15706;SDS011;7953;54.302;10.128;2022-07-19T09:23:02;4.53;;;4.13;;
15706;SDS011;7953;54.302;10.128;2022-07-19T09:25:36;5.90;;;4.72;;
15706;SDS011;7953;54.302;10.128;2022-07-19T09:28:04;7.25;;;4.68;;
15706;SDS011;7953;54.302;10.128;2022-07-19T09:30:36;5.90;;;4.45;;
15706;SDS011;7953;54.302;10.128;2022-07-19T09:33:05;7.03;;;4.40;;
15706;SDS011;7953;54.302;10.128;2022-07-19T09:35:36;6.57;;;5.63;;
15706;SDS011;7953;54.302;10.128;2022-07-19T09:38:20;6.03;;;4.53;;
15706;SDS011;7953;54.302;10.128;2022-07-19T09:40:49;6.07;;;4.70;;
15706;SDS011;7953;54.302;10.128;2022-07-19T09:43:16;4.13;;;3.72;;
15706;SDS011;7953;54.302;10.128;2022-07-19T09:45:44;4.90;;;4.00;;
15706;SDS011;7953;54.302;10.128;2022-07-19T09:48:11;4.75;;;4.22;;
15706;SDS011;7953;54.302;10.128;2022-07-19T09:50:39;5.45;;;4.43;;
15706;SDS011;7953;54.302;10.128;2022-07-19T09:53:07;4.97;;;4.22;;
15706;SDS011;7953;54.302;10.128;2022-07-19T09:55:35;5.78;;;4.35;;
15706;SDS011;7953;54.302;10.128;2022-07-19T09:58:02;4.72;;;4.28;;
15706;SDS011;7953;54.302;10.128;2022-07-19T10:00:32;4.38;;;3.97;;
15706;SDS011;7953;54.302;10.128;2022-07-19T10:03:00;4.75;;;4.35;;
15706;SDS011;7953;54.302;10.128;2022-07-19T10:05:29;5.75;;;4.88;;
15706;SDS011;7953;54.302;10.128;2022-07-19T10:07:57;4.32;;;3.80;;
15706;SDS011;7953;54.302;10.128;2022-07-19T10:10:25;5.18;;;4.47;;
15706;SDS011;7953;54.302;10.128;2022-07-19T10:12:55;4.95;;;4.47;;
15706;SDS011;7953;54.302;10.128;2022-07-19T10:15:24;6.15;;;5.05;;
15706;SDS011;7953;54.302;10.128;2022-07-19T10:17:58;7.60;;;4.13;;
15706;SDS011;7953;54.302;10.128;2022-07-19T10:20:30;5.28;;;3.95;;
15706;SDS011;7953;54.302;10.128;2022-07-19T10:23:00;4.70;;;4.30;;
15706;SDS011;7953;54.302;10.128;2022-07-19T10:25:37;5.40;;;4.28;;
15706;SDS011;7953;54.302;10.128;2022-07-19T10:28:09;6.60;;;4.90;;
15706;SDS011;7953;54.302;10.128;2022-07-19T10:30:53;10.07;;;4.50;;
15706;SDS011;7953;54.302;10.128;2022-07-19T10:33:26;7.97;;;4.78;;
15706;SDS011;7953;54.302;10.128;2022-07-19T10:35:55;4.30;;;3.78;;
15706;SDS011;7953;54.302;10.128;2022-07-19T10:38:23;6.22;;;4.70;;
15706;SDS011;7953;54.302;10.128;2022-07-19T10:40:51;5.65;;;4.65;;
15706;SDS011;7953;54.302;10.128;2022-07-19T10:43:22;4.78;;;4.20;;
15706;SDS011;7953;54.302;10.128;2022-07-19T10:46:08;6.60;;;3.80;;
15706;SDS011;7953;54.302;10.128;2022-07-19T10:48:39;5.50;;;4.13;;
15706;SDS011;7953;54.302;10.128;2022-07-19T10:51:08;4.65;;;3.97;;
15706;SDS011;7953;54.302;10.128;2022-07-19T10:56:34;4.03;;;3.72;;
15706;SDS011;7953;54.302;10.128;2022-07-19T10:59:03;6.35;;;4.50;;
15706;SDS011;7953;54.302;10.128;2022-07-19T11:01:33;5.05;;;4.13;;
15706;SDS011;7953;54.302;10.128;2022-07-19T11:06:49;4.80;;;4.40;;
15706;SDS011;7953;54.302;10.128;2022-07-19T11:09:17;6.43;;;5.00;;
15706;SDS011;7953;54.302;10.128;2022-07-19T11:11:45;5.40;;;4.90;;
15706;SDS011;7953;54.302;10.128;2022-07-19T11:14:12;5.57;;;4.55;;
15706;SDS011;7953;54.302;10.128;2022-07-19T11:16:39;7.38;;;5.00;;
15706;SDS011;7953;54.302;10.128;2022-07-19T11:19:08;4.97;;;4.55;;
15706;SDS011;7953;54.302;10.128;2022-07-19T11:21:36;5.90;;;5.05;;
15706;SDS011;7953;54.302;10.128;2022-07-19T11:24:03;5.20;;;4.70;;
15706;SDS011;7953;54.302;10.128;2022-07-19T11:26:35;5.28;;;4.78;;
15706;SDS011;7953;54.302;10.128;2022-07-19T11:29:05;5.28;;;4.55;;
15706;SDS011;7953;54.302;10.128;2022-07-19T11:31:32;5.10;;;4.55;;
15706;SDS011;7953;54.302;10.128;2022-07-19T11:33:59;5.57;;;5.07;;
15706;SDS011;7953;54.302;10.128;2022-07-19T11:36:26;4.72;;;4.32;;
15706;SDS011;7953;54.302;10.128;2022-07-19T11:38:55;5.05;;;4.45;;
15706;SDS011;7953;54.302;10.128;2022-07-19T11:41:24;4.75;;;4.35;;
15706;SDS011;7953;54.302;10.128;2022-07-19T11:43:53;4.68;;;4.28;;
15706;SDS011;7953;54.302;10.128;2022-07-19T11:46:22;5.00;;;4.50;;
15706;SDS011;7953;54.302;10.128;2022-07-19T11:48:54;5.50;;;4.82;;
15706;SDS011;7953;54.302;10.128;2022-07-19T11:51:22;5.28;;;4.68;;
15706;SDS011;7953;54.302;10.128;2022-07-19T11:53:50;4.97;;;4.57;;
15706;SDS011;7953;54.302;10.128;2022-07-19T11:56:20;5.93;;;4.68;;
15706;SDS011;7953;54.302;10.128;2022-07-19T11:58:48;6.07;;;5.07;;
15706;SDS011;7953;54.302;10.128;2022-07-19T12:01:21;4.82;;;4.43;;
15706;SDS011;7953;54.302;10.128;2022-07-19T12:03:54;5.57;;;4.43;;
15706;SDS011;7953;54.302;10.128;2022-07-19T12:06:33;4.95;;;4.45;;
15706;SDS011;7953;54.302;10.128;2022-07-19T12:09:03;4.63;;;4.15;;
15706;SDS011;7953;54.302;10.128;2022-07-19T12:11:36;5.72;;;4.75;;
15706;SDS011;7953;54.302;10.128;2022-07-19T12:14:15;5.55;;;4.55;;
15706;SDS011;7953;54.302;10.128;2022-07-19T12:16:45;6.70;;;4.68;;
15706;SDS011;7953;54.302;10.128;2022-07-19T12:19:13;6.95;;;5.03;;
15706;SDS011;7953;54.302;10.128;2022-07-19T12:21:43;6.80;;;4.47;;
15706;SDS011;7953;54.302;10.128;2022-07-19T12:24:11;5.10;;;4.60;;
15706;SDS011;7953;54.302;10.128;2022-07-19T12:26:56;6.10;;;4.28;;
15706;SDS011;7953;54.302;10.128;2022-07-19T12:29:28;4.90;;;4.35;;
15706;SDS011;7953;54.302;10.128;2022-07-19T12:31:58;5.70;;;4.80;;
15706;SDS011;7953;54.302;10.128;2022-07-19T12:34:27;6.53;;;4.53;;
15706;SDS011;7953;54.302;10.128;2022-07-19T12:36:55;5.20;;;4.70;;
15706;SDS011;7953;54.302;10.128;2022-07-19T12:39:23;5.10;;;4.47;;
15706;SDS011;7953;54.302;10.128;2022-07-19T12:41:57;4.13;;;3.80;;
15706;SDS011;7953;54.302;10.128;2022-07-19T12:44:28;4.50;;;4.10;;
15706;SDS011;7953;54.302;10.128;2022-07-19T12:46:56;5.03;;;4.28;;
15706;SDS011;7953;54.302;10.128;2022-07-19T12:49:24;4.45;;;4.05;;
15706;SDS011;7953;54.302;10.128;2022-07-19T12:51:52;4.55;;;4.15;;
15706;SDS011;7953;54.302;10.128;2022-07-19T12:54:19;4.80;;;4.30;;
15706;SDS011;7953;54.302;10.128;2022-07-19T12:56:46;5.60;;;4.47;;
15706;SDS011;7953;54.302;10.128;2022-07-19T12:59:12;4.55;;;4.15;;
15706;SDS011;7953;54.302;10.128;2022-07-19T13:01:58;7.40;;;4.47;;
15706;SDS011;7953;54.302;10.128;2022-07-19T13:04:25;8.50;;;5.00;;
15706;SDS011;7953;54.302;10.128;2022-07-19T13:06:52;6.45;;;3.88;;
15706;SDS011;7953;54.302;10.128;2022-07-19T13:09:19;4.82;;;4.20;;
15706;SDS011;7953;54.302;10.128;2022-07-19T13:11:46;4.45;;;3.90;;
15706;SDS011;7953;54.302;10.128;2022-07-19T13:14:13;4.47;;;4.05;;
15706;SDS011;7953;54.302;10.128;2022-07-19T13:16:40;4.10;;;3.80;;
15706;SDS011;7953;54.302;10.128;2022-07-19T13:19:08;5.60;;;3.88;;
15706;SDS011;7953;54.302;10.128;2022-07-19T13:21:35;4.30;;;3.92;;
15706;SDS011;7953;54.302;10.128;2022-07-19T13:24:02;4.90;;;3.83;;
15706;SDS011;7953;54.302;10.128;2022-07-19T13:26:29;5.25;;;4.03;;
15706;SDS011;7953;54.302;10.128;2022-07-19T13:28:56;5.22;;;4.38;;
15706;SDS011;7953;54.302;10.128;2022-07-19T13:31:23;4.30;;;3.90;;
15706;SDS011;7953;54.302;10.128;2022-07-19T13:33:50;3.92;;;3.05;;
15706;SDS011;7953;54.302;10.128;2022-07-19T13:36:18;5.03;;;3.90;;
15706;SDS011;7953;54.302;10.128;2022-07-19T13:38:45;4.07;;;3.78;;
15706;SDS011;7953;54.302;10.128;2022-07-19T13:41:13;4.97;;;3.58;;
15706;SDS011;7953;54.302;10.128;2022-07-19T13:43:41;4.15;;;3.40;;
15706;SDS011;7953;54.302;10.128;2022-07-19T13:46:09;4.40;;;3.35;;
15706;SDS011;7953;54.302;10.128;2022-07-19T13:48:36;3.63;;;3.33;;
15706;SDS011;7953;54.302;10.128;2022-07-19T13:51:03;5.63;;;4.35;;
15706;SDS011;7953;54.302;10.128;2022-07-19T13:53:31;4.07;;;3.70;;
15706;SDS011;7953;54.302;10.128;2022-07-19T13:55:58;4.15;;;3.63;;
15706;SDS011;7953;54.302;10.128;2022-07-19T13:58:25;4.38;;;3.40;;
15706;SDS011;7953;54.302;10.128;2022-07-19T14:00:52;3.63;;;3.33;;
15706;SDS011;7953;54.302;10.128;2022-07-19T14:03:19;4.45;;;3.67;;
15706;SDS011;7953;54.302;10.128;2022-07-19T14:05:46;3.65;;;3.35;;
15706;SDS011;7953;54.302;10.128;2022-07-19T14:08:13;6.57;;;3.97;;
15706;SDS011;7953;54.302;10.128;2022-07-19T14:10:42;4.93;;;4.25;;
15706;SDS011;7953;54.302;10.128;2022-07-19T14:13:09;4.28;;;3.88;;
15706;SDS011;7953;54.302;10.128;2022-07-19T14:15:37;5.30;;;3.97;;
15706;SDS011;7953;54.302;10.128;2022-07-19T14:18:05;4.43;;;3.78;;
15706;SDS011;7953;54.302;10.128;2022-07-19T14:20:32;4.43;;;4.03;;
15706;SDS011;7953;54.302;10.128;2022-07-19T14:22:59;4.32;;;3.92;;
15706;SDS011;7953;54.302;10.128;2022-07-19T14:25:26;4.75;;;3.33;;
15706;SDS011;7953;54.302;10.128;2022-07-19T14:27:54;4.97;;;3.90;;
15706;SDS011;7953;54.302;10.128;2022-07-19T14:30:21;5.70;;;4.18;;
15706;SDS011;7953;54.302;10.128;2022-07-19T14:32:49;3.92;;;3.50;;
15706;SDS011;7953;54.302;10.128;2022-07-19T14:35:17;5.78;;;3.78;;
15706;SDS011;7953;54.302;10.128;2022-07-19T14:37:44;4.05;;;3.60;;
15706;SDS011;7953;54.302;10.128;2022-07-19T14:40:11;4.05;;;3.70;;
15706;SDS011;7953;54.302;10.128;2022-07-19T14:42:38;4.43;;;4.03;;
15706;SDS011;7953;54.302;10.128;2022-07-19T14:45:07;6.18;;;4.07;;
15706;SDS011;7953;54.302;10.128;2022-07-19T14:47:35;4.75;;;4.10;;
15706;SDS011;7953;54.302;10.128;2022-07-19T14:50:03;4.68;;;4.00;;
15706;SDS011;7953;54.302;10.128;2022-07-19T14:52:33;4.10;;;3.70;;
15706;SDS011;7953;54.302;10.128;2022-07-19T14:55:00;4.07;;;3.67;;
15706;SDS011;7953;54.302;10.128;2022-07-19T14:57:27;4.47;;;4.13;;
15706;SDS011;7953;54.302;10.128;2022-07-19T14:59:54;5.35;;;3.60;;